Data for 02/06/2017

Time Sea-Level Adjusted Pressure Absolute Pressure Temperature Relative Humidity Dew Point   
(mb) (inHg) (mb) (inHg) (C) (F) (%) (C) (F)
00:05 1004 29.65 833 24.6 7.3 45.1 37 -6.4 20.4
00:10 1004 29.65 833 24.6 7.3 45.1 37 -6.3 20.6
00:15 1004 29.65 833 24.6 7.1 44.8 37 -6.7 19.9
00:20 1003 29.62 833 24.6 7.5 45.4 38 -6.1 21
00:25 1003 29.62 833 24.6 7.4 45.4 38 -6.1 21
00:30 1003 29.62 833 24.6 7.4 45.2 38 -6 21.3
00:35 1003 29.62 832 24.57 7.3 45.2 38 -5.9 21.4
00:40 1003 29.62 832 24.57 7.2 44.9 38 -6.1 20.9
00:45 1003 29.62 832 24.57 7.2 45 37 -6.4 20.5
00:50 1003 29.62 832 24.57 7.3 45.1 39 -5.9 21.4
00:55 1003 29.62 832 24.57 7.3 45.1 37 -6.4 20.6
01:00 1003 29.62 832 24.57 7.3 45.2 37 -6.3 20.6
01:05 1003 29.62 832 24.57 7.2 44.9 37 -6.6 20.1
01:10 1003 29.62 832 24.57 7.3 45.1 37 -6.4 20.4
01:15 1003 29.62 832 24.57 7.3 45.1 37 -6.5 20.3
01:20 1003 29.62 832 24.57 7.3 45.1 37 -6.3 20.6
01:25 1002 29.59 832 24.57 7.4 45.3 36 -6.6 20.1
01:30 1002 29.59 832 24.57 7.4 45.3 37 -6.5 20.3
01:35 1002 29.59 831 24.54 7.4 45.4 37 -6.4 20.5
01:40 1002 29.59 831 24.54 7.5 45.5 36 -6.4 20.4
01:45 1002 29.59 831 24.54 7.3 45.1 36 -6.8 19.8
01:50 1002 29.59 831 24.54 7.3 45.1 36 -6.6 20
01:55 1002 29.59 831 24.54 7.3 45.1 38 -6.1 21.1
02:00 1002 29.59 831 24.54 7.1 44.8 38 -6.4 20.5
02:05 1002 29.59 831 24.54 7.1 44.7 39 -6.1 21
02:10 1002 29.59 831 24.54 6.9 44.4 38 -6.3 20.7
02:15 1002 29.59 831 24.54 6.9 44.4 38 -6.4 20.5
02:20 1002 29.59 831 24.54 6.9 44.4 37 -6.6 20
02:25 1001 29.56 831 24.54 7.1 44.7 37 -6.5 20.2
02:30 1001 29.56 830 24.51 7.3 45.1 38 -6.3 20.7
02:35 1001 29.56 830 24.51 7.3 45.2 36 -6.7 20
02:40 1001 29.56 830 24.51 7.4 45.2 38 -6.1 21.1
02:45 1001 29.56 830 24.51 7.4 45.3 38 -5.9 21.4
02:50 1001 29.56 830 24.51 7.4 45.3 38 -5.8 21.5
02:55 1001 29.56 830 24.51 7.5 45.4 39 -5.6 21.8
03:00 1001 29.56 830 24.51 7.3 45.2 39 -5.8 21.6
03:05 1001 29.56 830 24.51 7.4 45.3 39 -5.7 21.8
03:10 1001 29.56 830 24.51 7.3 45.2 38 -6 21.2
03:15 1001 29.56 830 24.51 7.5 45.5 38 -5.9 21.3
03:20 1000 29.53 830 24.51 7.4 45.3 38 -6 21.1
03:25 1000 29.53 830 24.51 7.4 45.2 36 -6.6 20.1
03:30 1000 29.53 829 24.48 7.8 46 37 -6.1 21.1
03:35 1000 29.53 829 24.48 7.7 45.8 36 -6.6 20.1
03:40 1000 29.53 829 24.48 7.8 46 35 -6.7 20
03:45 1000 29.53 829 24.48 7.8 46 36 -6.4 20.4
03:50 1000 29.53 829 24.48 7.8 46 36 -6.4 20.4
03:55 1000 29.53 829 24.48 7.9 46.2 36 -6.2 20.9
04:00 1000 29.53 829 24.48 7.5 45.5 36 -6.7 19.9
04:05 1000 29.53 829 24.48 7.7 45.9 35 -6.6 20.1
04:10 1000 29.53 829 24.48 7.6 45.7 36 -6.4 20.6
04:15 999 29.5 829 24.48 7.5 45.4 37 -6.5 20.4
04:20 999 29.5 829 24.48 7.4 45.2 38 -6.1 21
04:25 999 29.5 829 24.48 6.9 44.4 41 -5.4 22.2
04:30 999 29.5 829 24.48 6.3 43.3 44 -5.2 22.7
04:35 999 29.5 828 24.45 6.1 43 42 -5.8 21.6
04:40 999 29.5 828 24.45 6.9 44.5 38 -6.2 20.8
04:45 999 29.5 828 24.45 7.6 45.6 38 -5.7 21.7
04:50 999 29.5 828 24.45 7.4 45.3 40 -5.4 22.3
04:55 999 29.5 828 24.45 7.3 45.1 40 -5.4 22.3
05:00 999 29.5 828 24.45 7.3 45.1 41 -5 23
05:05 999 29.5 828 24.45 7.4 45.2 40 -5.4 22.2
05:10 999 29.5 828 24.45 7.5 45.6 40 -5.1 22.8
05:15 999 29.5 828 24.45 7.6 45.7 38 -5.9 21.4
05:20 999 29.5 828 24.45 7.8 46.1 39 -5.2 22.7
05:25 999 29.5 828 24.45 7.6 45.6 39 -5.3 22.4
05:30 999 29.5 828 24.45 7.5 45.6 41 -5 23
05:35 999 29.5 828 24.45 7.5 45.5 40 -5.2 22.6
05:40 999 29.5 828 24.45 7.5 45.6 40 -5.3 22.4
05:45 999 29.5 828 24.45 7.7 45.9 39 -5.2 22.7
05:50 998 29.47 828 24.45 7.8 46.1 40 -5 23
05:55 998 29.47 828 24.45 7.9 46.1 39 -5.1 22.8
06:00 998 29.47 827 24.42 7.5 45.6 41 -5 23.1
06:05 998 29.47 827 24.42 7.5 45.5 40 -5.2 22.7
06:10 998 29.47 827 24.42 7.5 45.5 41 -4.8 23.4
06:15 998 29.47 827 24.42 7.4 45.3 41 -4.9 23.1
06:20 998 29.47 827 24.42 7.5 45.5 39 -5.5 22.1
06:25 998 29.47 827 24.42 7.8 46 38 -5.6 22
06:30 998 29.47 828 24.45 7.9 46.2 39 -5.1 22.8
06:35 999 29.5 828 24.45 7.7 45.9 40 -5.2 22.7
06:40 998 29.47 828 24.45 7.8 46.1 39 -5.3 22.5
06:45 998 29.47 828 24.45 7.7 45.8 39 -5.2 22.6
06:50 998 29.47 828 24.45 7.6 45.7 39 -5.4 22.3
06:55 998 29.47 828 24.45 7.5 45.5 40 -5.2 22.6
07:00 999 29.5 828 24.45 7.5 45.5 40 -5.3 22.4
07:05 999 29.5 828 24.45 7.5 45.6 39 -5.6 21.9
07:10 999 29.5 828 24.45 7.6 45.6 39 -5.6 22
07:15 999 29.5 828 24.45 7.7 45.9 36 -6.3 20.7
07:20 998 29.47 828 24.45 7.9 46.2 38 -5.6 21.9
07:25 998 29.47 828 24.45 7.8 46 37 -6 21.3
07:30 998 29.47 828 24.45 7.8 46 37 -6 21.2
07:35 999 29.5 828 24.45 7.8 46.1 38 -5.7 21.7
07:40 999 29.5 828 24.45 7.6 45.7 40 -5.3 22.5
07:45 999 29.5 828 24.45 7.4 45.4 39 -5.5 22.1
07:50 999 29.5 828 24.45 7.4 45.3 40 -5.5 22.2
07:55 999 29.5 828 24.45 7.4 45.4 41 -5 22.9
08:00 999 29.5 828 24.45 6.5 43.6 51 -2.8 27
08:05 999 29.5 828 24.45 4.4 40 57 -3.3 26
08:10 999 29.5 828 24.45 4.6 40.2 53 -4.3 24.3
08:15 999 29.5 828 24.45 4.8 40.6 55 -3.4 25.8
08:20 999 29.5 828 24.45 5 40.9 53 -3.9 25
08:25 999 29.5 828 24.45 5.4 41.7 52 -3.7 25.3
08:30 999 29.5 828 24.45 4.4 39.9 60 -2.7 27.1
08:35 999 29.5 828 24.45 2.6 36.7 64 -3.5 25.7
08:40 999 29.5 828 24.45 1.7 35 66 -3.9 25
08:45 999 29.5 828 24.45 1 33.8 68 -4.3 24.3
08:50 999 29.5 828 24.45 1.1 34 67 -4.2 24.4
08:55 999 29.5 828 24.45 1.3 34.3 65 -4.5 23.9
09:00 999 29.5 828 24.45 1.6 34.9 64 -4.4 24.2
09:05 999 29.5 828 24.45 1.8 35.2 66 -4 24.8
09:10 999 29.5 828 24.45 1.7 35.1 66 -4.1 24.7
09:15 999 29.5 828 24.45 2.3 36.1 61 -4.5 23.9
09:20 999 29.5 828 24.45 3.4 38.1 57 -4.2 24.4
09:25 999 29.5 828 24.45 3.8 38.9 56 -4.1 24.7
09:30 999 29.5 828 24.45 4.5 40.1 54 -4 24.8
09:35 999 29.5 828 24.45 4.2 39.6 53 -4.5 23.9
09:40 999 29.5 828 24.45 4.8 40.6 54 -3.8 25.2
09:45 999 29.5 828 24.45 4.6 40.3 51 -4.7 23.6
09:50 999 29.5 828 24.45 4.6 40.3 55 -3.7 25.4
09:55 999 29.5 828 24.45 3.9 39.1 52 -4.9 23.1
10:00 999 29.5 828 24.45 4.7 40.5 52 -4.4 24.1
10:05 999 29.5 828 24.45 4.9 40.8 48 -5.2 22.6
10:10 999 29.5 828 24.45 5.9 42.5 47 -4.6 23.7
10:15 999 29.5 828 24.45 6.5 43.7 48 -3.8 25.2
10:20 999 29.5 828 24.45 6.6 43.9 46 -4.2 24.4
10:25 999 29.5 828 24.45 6.6 43.8 48 -3.6 25.5
10:30 999 29.5 828 24.45 6.6 43.8 45 -4.4 24
10:35 999 29.5 828 24.45 6.8 44.2 43 -4.8 23.3
10:40 999 29.5 828 24.45 7 44.7 44 -4.4 24.1
10:45 999 29.5 828 24.45 7 44.6 43 -4.7 23.6
10:50 999 29.5 828 24.45 6.9 44.4 43 -4.7 23.5
10:55 999 29.5 828 24.45 6.8 44.2 43 -4.8 23.4
11:00 999 29.5 828 24.45 6.7 44 42 -5.4 22.3
11:05 999 29.5 828 24.45 6.9 44.4 43 -4.7 23.5
11:10 999 29.5 828 24.45 6.6 43.8 45 -4.6 23.7
11:15 999 29.5 828 24.45 7.2 44.9 42 -5 23.1
11:20 999 29.5 828 24.45 7.5 45.6 43 -4.1 24.7
11:25 999 29.5 828 24.45 7.6 45.7 40 -5.1 22.8
11:30 999 29.5 828 24.45 8 46.4 41 -4.5 23.9
11:35 999 29.5 828 24.45 7.5 45.4 44 -4 24.9
11:40 999 29.5 828 24.45 6.8 44.2 42 -5.2 22.7
11:45 999 29.5 828 24.45 7.9 46.2 40 -5 23.1
11:50 999 29.5 828 24.45 8 46.4 40 -4.8 23.4
11:55 999 29.5 828 24.45 8 46.4 41 -4.4 24
12:00 999 29.5 828 24.45 7 44.7 46 -3.7 25.4
12:05 999 29.5 828 24.45 5.1 41.2 52 -4 24.9
12:10 999 29.5 828 24.45 4.5 40 51 -4.9 23.2
12:15 999 29.5 828 24.45 4 39.2 53 -4.7 23.6
12:20 999 29.5 828 24.45 3.8 38.8 54 -4.8 23.4
12:25 999 29.5 828 24.45 3.9 39 52 -5 22.9
12:30 999 29.5 828 24.45 4.5 40.1 49 -5.2 22.7
12:35 998 29.47 828 24.45 4.6 40.2 52 -4.4 24.1
12:40 999 29.5 828 24.45 4.2 39.6 51 -4.9 23.2
12:45 998 29.47 828 24.45 5 41 47 -5.3 22.4
12:50 998 29.47 828 24.45 6.4 43.5 43 -5.3 22.4
12:55 998 29.47 828 24.45 5.9 42.6 46 -4.9 23.2
13:00 998 29.47 828 24.45 6.2 43.1 44 -5.2 22.7
13:05 998 29.47 827 24.42 7.4 45.3 40 -5.2 22.6
13:10 998 29.47 827 24.42 8.1 46.6 37 -5.8 21.6
13:15 998 29.47 827 24.42 9 48.1 38 -4.6 23.8
13:20 998 29.47 827 24.42 8 46.4 38 -5.5 22
13:25 998 29.47 827 24.42 7.7 45.8 38 -5.9 21.4
13:30 998 29.47 827 24.42 7.8 46 36 -6.2 20.8
13:35 998 29.47 827 24.42 8 46.3 36 -6.2 20.9
13:40 998 29.47 827 24.42 7.9 46.2 36 -6.1 21
13:45 998 29.47 827 24.42 7.9 46.2 37 -5.8 21.5
13:50 998 29.47 827 24.42 7.7 45.8 38 -5.8 21.6
13:55 998 29.47 827 24.42 7.6 45.6 38 -5.8 21.5
14:00 998 29.47 827 24.42 7.7 45.9 39 -5.2 22.6
14:05 998 29.47 827 24.42 7.6 45.7 38 -5.8 21.6
14:10 998 29.47 827 24.42 7.9 46.2 37 -5.8 21.6
14:15 998 29.47 827 24.42 7.6 45.7 39 -5.4 22.4
14:20 998 29.47 827 24.42 7.6 45.6 40 -5 23
14:25 998 29.47 827 24.42 7.6 45.7 39 -5.3 22.4
14:30 998 29.47 827 24.42 7.5 45.5 40 -5.3 22.4
14:35 998 29.47 827 24.42 7.5 45.4 38 -5.8 21.5
14:40 998 29.47 827 24.42 7.7 45.8 40 -5.1 22.8
14:45 997 29.44 827 24.42 7.6 45.6 40 -5.2 22.6
14:50 998 29.47 827 24.42 8.3 46.9 37 -5.4 22.2
14:55 998 29.47 827 24.42 9 48.3 36 -5.1 22.7
15:00 998 29.47 827 24.42 9.5 49.1 33 -5.9 21.4
15:05 998 29.47 827 24.42 8.9 48.1 32 -7 19.5
15:10 998 29.47 827 24.42 8.7 47.6 33 -6.8 19.7
15:15 998 29.47 827 24.42 8.5 47.2 33 -6.7 19.9
15:20 998 29.47 827 24.42 8.1 46.6 34 -6.8 19.8
15:25 998 29.47 827 24.42 8.3 46.9 32 -7.3 18.9
15:30 998 29.47 827 24.42 8.5 47.2 30 -7.9 17.7
15:35 998 29.47 827 24.42 8.6 47.5 32 -7.1 19.2
15:40 998 29.47 827 24.42 8.2 46.7 33 -7 19.4
15:45 998 29.47 827 24.42 8.1 46.6 32 -7.4 18.7
15:50 998 29.47 827 24.42 8 46.4 37 -5.9 21.3
15:55 998 29.47 827 24.42 7.6 45.7 38 -5.8 21.5
16:00 998 29.47 827 24.42 7.7 45.8 38 -5.8 21.6
16:05 998 29.47 827 24.42 7.7 45.9 38 -5.7 21.8
16:10 998 29.47 827 24.42 7.5 45.5 40 -5.3 22.4
16:15 998 29.47 827 24.42 7 44.7 41 -5.4 22.3
16:20 998 29.47 827 24.42 6.9 44.4 39 -6.1 21
16:25 998 29.47 827 24.42 6.9 44.4 40 -5.7 21.8
16:30 998 29.47 827 24.42 7 44.5 39 -6.2 20.8
16:35 998 29.47 827 24.42 6.9 44.4 40 -5.6 21.9
16:40 998 29.47 827 24.42 6.8 44.2 45 -4.5 23.9
16:45 999 29.5 828 24.45 4.3 39.8 55 -3.8 25.1
16:50 999 29.5 828 24.45 1.4 34.5 64 -4.8 23.4
16:55 999 29.5 828 24.45 -0.7 30.8 69 -5.7 21.8
17:00 999 29.5 828 24.45 -1.6 29.2 75 -5.4 22.2
17:05 1000 29.53 829 24.48 -2.1 28.3 76 -5.7 21.7
17:10 1000 29.53 829 24.48 -1.9 28.6 77 -5.4 22.3
17:15 1000 29.53 829 24.48 -1.4 29.5 76 -5 23
17:20 1000 29.53 829 24.48 -0.8 30.6 78 -4.2 24.5
17:25 1000 29.53 829 24.48 -0.5 31.1 78 -3.8 25.2
17:30 1000 29.53 829 24.48 -0.1 31.8 81 -3 26.6
17:35 1000 29.53 829 24.48 0.2 32.4 78 -3.1 26.4
17:40 1000 29.53 829 24.48 0.4 32.7 78 -3 26.5
17:45 1000 29.53 830 24.51 0.3 32.6 79 -2.9 26.9
17:50 1000 29.53 829 24.48 0.4 32.6 80 -2.7 27.1
17:55 1000 29.53 829 24.48 0.5 32.9 80 -2.6 27.3
18:00 1000 29.53 829 24.48 0.6 33.1 80 -2.4 27.6
18:05 1001 29.56 830 24.51 0.2 32.4 81 -2.7 27.2
18:10 1001 29.56 830 24.51 -0.3 31.5 82 -3 26.5
18:15 1001 29.56 830 24.51 -0.3 31.4 84 -2.6 27.3
18:20 1001 29.56 830 24.51 0.8 33.4 84 -1.5 29.2
18:25 1000 29.53 830 24.51 1.3 34.3 83 -1.3 29.7
18:30 1000 29.53 829 24.48 1.4 34.6 81 -1.5 29.3
18:35 1000 29.53 830 24.51 1.4 34.5 80 -1.7 29
18:40 1001 29.56 830 24.51 1.6 34.9 80 -1.5 29.4
18:45 1001 29.56 830 24.51 1.3 34.3 77 -2.3 27.8
18:50 1001 29.56 830 24.51 1.4 34.5 78 -2 28.4
18:55 1001 29.56 830 24.51 0.6 33 82 -2.2 28.1
19:00 1001 29.56 830 24.51 -0.1 31.9 84 -2.5 27.5
19:05 1002 29.59 831 24.54 -0.6 30.9 82 -3.4 25.9
19:10 1002 29.59 831 24.54 -2.4 27.7 85 -4.6 23.8
19:15 1002 29.59 831 24.54 -3.2 26.3 87 -5 23
19:20 1002 29.59 831 24.54 -3.2 26.2 87 -5.1 22.8
19:25 1002 29.59 831 24.54 -3.2 26.2 86 -5.3 22.5
19:30 1002 29.59 831 24.54 -3.3 26.1 86 -5.4 22.3
19:35 1002 29.59 831 24.54 -3.4 25.8 87 -5.3 22.4
19:40 1002 29.59 832 24.57 -3.4 25.8 87 -5.4 22.3
19:45 1003 29.62 832 24.57 -3.5 25.7 87 -5.3 22.4
19:50 1003 29.62 832 24.57 -3.6 25.4 88 -5.4 22.4
19:55 1003 29.62 833 24.6 -3.8 25.1 88 -5.6 21.9
20:00 1004 29.65 833 24.6 -4.3 24.3 89 -5.8 21.5
20:05 1004 29.65 833 24.6 -4.4 24.1 89 -5.9 21.4
20:10 1004 29.65 833 24.6 -4.4 24.2 89 -5.9 21.4
20:15 1004 29.65 833 24.6 -4.4 24.2 90 -5.7 21.7
20:20 1004 29.65 833 24.6 -4.3 24.2 89 -5.9 21.4
20:25 1004 29.65 833 24.6 -4.7 23.6 89 -6.2 20.9
20:30 1004 29.65 833 24.6 -4.6 23.7 89 -6.2 20.8
20:35 1004 29.65 833 24.6 -4.5 23.9 88 -6.1 21
20:40 1004 29.65 834 24.63 -4.3 24.2 88 -6.1 21.1
20:45 1005 29.68 834 24.63 -4.3 24.3 87 -6.2 20.9
20:50 1005 29.68 834 24.63 -4.3 24.3 85 -6.4 20.6
20:55 1005 29.68 834 24.63 -4.2 24.5 86 -6.2 20.8
21:00 1005 29.68 834 24.63 -4.1 24.6 87 -5.9 21.3
21:05 1005 29.68 834 24.63 -4.2 24.4 88 -5.9 21.4
21:10 1005 29.68 834 24.63 -4.3 24.3 89 -5.8 21.5
21:15 1005 29.68 834 24.63 -4.4 24.1 91 -5.7 21.8
21:20 1005 29.68 834 24.63 -4.4 24.1 91 -5.7 21.8
21:25 1005 29.68 834 24.63 -4.4 24 91 -5.8 21.6
21:30 1006 29.71 835 24.66 -4.4 24.1 91 -5.7 21.7
21:35 1006 29.71 835 24.66 -4.4 24 91 -5.7 21.7
21:40 1006 29.71 835 24.66 -4.3 24.3 90 -5.7 21.8
21:45 1006 29.71 835 24.66 -4.2 24.4 91 -5.5 22
21:50 1006 29.71 835 24.66 -4.2 24.5 91 -5.5 22.1
21:55 1006 29.71 835 24.66 -4.2 24.4 91 -5.4 22.2
22:00 1006 29.71 835 24.66 -4.2 24.4 91 -5.4 22.3
22:05 1006 29.71 835 24.66 -4.2 24.5 91 -5.4 22.3
22:10 1006 29.71 835 24.66 -4.3 24.3 91 -5.5 22
22:15 1006 29.71 835 24.66 -4.4 24.2 92 -5.5 22.1
22:20 1006 29.71 835 24.66 -4.3 24.3 92 -5.4 22.3
22:25 1006 29.71 835 24.66 -4.2 24.4 92 -5.3 22.4
22:30 1006 29.71 835 24.66 -4.1 24.5 92 -5.3 22.5
22:35 1006 29.71 835 24.66 -4.1 24.5 92 -5.3 22.4
22:40 1006 29.71 835 24.66 -4.3 24.3 92 -5.4 22.2
22:45 1006 29.71 835 24.66 -4.3 24.3 92 -5.4 22.2
22:50 1006 29.71 835 24.66 -4.3 24.2 91 -5.5 22.1
22:55 1006 29.71 835 24.66 -4.4 24.2 91 -5.6 22
23:00 1006 29.71 835 24.66 -4.4 24.1 91 -5.6 21.9
23:05 1006 29.71 835 24.66 -4.5 24 91 -5.7 21.8
23:10 1006 29.71 835 24.66 -4.6 23.8 91 -5.8 21.6
23:15 1006 29.71 835 24.66 -4.5 23.9 92 -5.7 21.8
23:20 1006 29.71 835 24.66 -4.5 23.9 92 -5.7 21.8
23:25 1006 29.71 835 24.66 -4.6 23.7 91 -5.8 21.6
23:30 1006 29.71 835 24.66 -4.7 23.5 92 -5.9 21.4
23:35 1006 29.71 835 24.66 -4.7 23.5 92 -5.8 21.5
23:40 1006 29.71 835 24.66 -4.7 23.5 92 -5.8 21.5
23:45 1006 29.71 835 24.66 -4.7 23.5 92 -5.8 21.5
23:50 1006 29.71 835 24.66 -4.7 23.6 92 -5.9 21.5
23:55 1006 29.71 835 24.66 -4.7 23.6 91 -5.9 21.4
24:00 1006 29.71 835 24.66 -4.6 23.7 91 -5.9 21.4